Rockford, Illinois
Current Conditions -  °F | °C
As of 1:54 PM on Wednesday 17 Dec 2014 (Local Time) from KRFD Reporting Station
Overcast Overcast  
Wind Chill: 14°   Ceiling: 1900
Heat Index: 25°   Visibility: 10mi
Dew Point: 16°   Wind: 13mph
Humidity: 69%   Direction: 320°NW
Pressure: 30.25"   Gusts: NA
Location:  42.27°N, 89.08°W
Report Text: KRFD 171954Z 32011KT 10SM OVC019 M04/M09 A3025 RMK AO2 SLP253 T10391089
Loading
Personal Weather Stations






























Interactive Weather Map New forecast layout! Learn more

10-Day Weather Forecast

Advertisements
Track Severe Weather on mobile